createdAt,value
2018-06-03T00:01:09.962Z,3.97
2018-06-03T00:03:41.553Z,3.53
2018-06-03T00:06:12.818Z,5.93
2018-06-03T00:08:43.404Z,4.73
2018-06-03T00:11:14.889Z,4.27
2018-06-03T00:13:45.163Z,4.30
2018-06-03T00:16:16.065Z,3.73
2018-06-03T00:18:46.859Z,4.57
2018-06-03T00:21:28.433Z,6.33
2018-06-03T00:23:58.452Z,3.43
2018-06-03T00:26:44.667Z,3.20
2018-06-03T00:29:15.402Z,5.47
2018-06-03T00:31:47.122Z,3.70
2018-06-03T00:34:17.355Z,4.87
2018-06-03T00:36:49.987Z,3.30
2018-06-03T00:39:20.321Z,3.30
2018-06-03T00:41:50.367Z,4.07
2018-06-03T00:44:20.460Z,5.10
2018-06-03T00:46:50.831Z,3.97
2018-06-03T00:49:20.766Z,3.97
2018-06-03T00:51:50.897Z,4.20
2018-06-03T00:54:21.317Z,4.70
2018-06-03T00:57:01.924Z,5.00
2018-06-03T00:59:32.427Z,4.43
2018-06-03T01:02:02.473Z,5.23
2018-06-03T01:04:32.557Z,4.67
2018-06-03T01:08:05.216Z,5.33
2018-06-03T01:10:35.520Z,4.63
2018-06-03T01:13:05.895Z,4.47
2018-06-03T01:15:37.071Z,4.87
2018-06-03T01:18:07.093Z,4.43
2018-06-03T01:20:37.090Z,5.97
2018-06-03T01:23:08.303Z,4.87
2018-06-03T01:25:38.618Z,6.07
2018-06-03T01:28:09.467Z,4.47
2018-06-03T01:30:40.320Z,7.17
2018-06-03T01:33:10.480Z,6.20
2018-06-03T01:35:40.523Z,4.83
2018-06-03T01:38:11.425Z,4.07
2018-06-03T01:40:48.686Z,6.67
2018-06-03T01:43:27.863Z,7.17
2018-06-03T01:45:58.197Z,5.77
2018-06-03T01:48:28.281Z,5.70
2018-06-03T01:50:58.304Z,6.70
2018-06-03T01:53:28.447Z,4.30
2018-06-03T01:55:58.476Z,4.13
2018-06-03T01:58:29.384Z,6.90
2018-06-03T02:00:59.730Z,5.20
2018-06-03T02:03:29.891Z,4.90
2018-06-03T02:06:00.059Z,4.13
2018-06-03T02:08:31.038Z,6.13
2018-06-03T02:11:01.188Z,5.13
2018-06-03T02:13:31.389Z,7.33
2018-06-03T02:18:50.016Z,8.73
2018-06-03T02:21:20.203Z,5.43
2018-06-03T02:23:50.444Z,5.33
2018-06-03T02:26:22.733Z,9.20
2018-06-03T02:28:52.939Z,9.87
2018-06-03T02:31:23.113Z,4.90
2018-06-03T02:33:53.495Z,6.73
2018-06-03T02:36:23.564Z,4.50
2018-06-03T02:38:53.717Z,4.97
2018-06-03T02:41:24.034Z,6.50
2018-06-03T02:43:54.074Z,11.83
2018-06-03T02:46:24.232Z,6.07
2018-06-03T02:48:55.349Z,4.97
2018-06-03T02:51:25.444Z,5.60
2018-06-03T02:53:55.511Z,6.60
2018-06-03T02:56:26.599Z,5.60
2018-06-03T02:58:56.480Z,6.83
2018-06-03T03:01:26.543Z,7.13
2018-06-03T03:03:56.593Z,5.60
2018-06-03T03:06:27.558Z,8.47
2018-06-03T03:09:08.670Z,7.00
2018-06-03T03:12:01.488Z,6.67
2018-06-03T03:14:31.616Z,6.17
2018-06-03T03:17:02.037Z,7.53
2018-06-03T03:19:32.242Z,5.83
2018-06-03T03:22:42.411Z,4.70
2018-06-03T03:25:20.474Z,6.50
2018-06-03T03:27:51.007Z,5.83
2018-06-03T03:30:21.099Z,8.10
2018-06-03T03:32:51.138Z,7.03
2018-06-03T03:35:21.134Z,5.73
2018-06-03T03:37:51.225Z,6.17
2018-06-03T03:40:21.623Z,8.00
2018-06-03T03:42:51.615Z,7.13
2018-06-03T03:45:21.688Z,5.93
2018-06-03T03:47:59.733Z,6.47
2018-06-03T03:50:37.667Z,6.93
2018-06-03T03:53:20.921Z,5.83
2018-06-03T03:55:59.935Z,6.57
2018-06-03T03:58:31.098Z,6.40
2018-06-03T04:01:01.502Z,5.50
2018-06-03T04:03:32.239Z,7.23
2018-06-03T04:06:03.096Z,5.90
2018-06-03T04:08:33.524Z,7.60
2018-06-03T04:11:03.675Z,7.97
2018-06-03T04:13:34.031Z,8.63
2018-06-03T04:16:05.250Z,7.17
2018-06-03T04:18:35.288Z,7.33
2018-06-03T04:21:05.599Z,7.40
2018-06-03T04:23:36.000Z,6.33
2018-06-03T04:26:06.977Z,6.40
2018-06-03T04:28:37.066Z,7.47
2018-06-03T04:31:07.201Z,6.87
2018-06-03T04:33:38.555Z,9.77
2018-06-03T04:36:08.625Z,9.23
2018-06-03T04:38:38.861Z,5.93
2018-06-03T04:41:09.229Z,8.03
2018-06-03T04:43:39.254Z,6.67
2018-06-03T04:46:09.295Z,6.87
2018-06-03T04:48:39.842Z,7.80
2018-06-03T04:51:09.928Z,6.27
2018-06-03T04:53:40.914Z,7.60
2018-06-03T04:56:11.315Z,7.07
2018-06-03T04:58:41.485Z,6.47
2018-06-03T05:01:11.554Z,7.07
2018-06-03T05:03:42.776Z,8.43
2018-06-03T05:06:13.749Z,7.70
2018-06-03T05:08:43.845Z,8.00
2018-06-03T05:11:15.160Z,8.17
2018-06-03T05:13:45.454Z,7.17
2018-06-03T05:16:15.605Z,5.77
2018-06-03T05:18:46.015Z,9.77
2018-06-03T05:21:16.366Z,6.00
2018-06-03T05:23:46.537Z,7.43
2018-06-03T05:26:17.030Z,6.23
2018-06-03T05:28:47.813Z,7.60
2018-06-03T05:31:18.040Z,7.07
2018-06-03T05:33:48.179Z,9.47
2018-06-03T05:36:18.227Z,7.47
2018-06-03T05:38:49.511Z,8.43
2018-06-03T05:41:19.782Z,7.67
2018-06-03T05:43:49.767Z,8.40
2018-06-03T05:46:20.288Z,6.90
2018-06-03T05:48:52.029Z,6.90
2018-06-03T05:51:22.384Z,8.57
2018-06-03T05:53:52.765Z,8.20
2018-06-03T05:56:23.717Z,6.83
2018-06-03T05:58:54.003Z,6.57
2018-06-03T06:01:25.169Z,8.73
2018-06-03T06:03:56.088Z,7.30
2018-06-03T06:06:26.130Z,8.17
2018-06-03T06:08:57.348Z,7.50
2018-06-03T06:11:27.539Z,8.60
2018-06-03T06:14:10.339Z,8.30
2018-06-03T06:16:42.101Z,10.60
2018-06-03T06:19:12.673Z,11.57
2018-06-03T06:21:43.801Z,10.47
2018-06-03T06:24:14.109Z,10.63
2018-06-03T06:26:44.637Z,11.73
2018-06-03T06:29:14.781Z,13.47
2018-06-03T06:31:44.872Z,14.80
2018-06-03T06:34:15.488Z,13.33
2018-06-03T06:36:45.586Z,15.07
2018-06-03T06:39:16.614Z,12.03
2018-06-03T06:41:47.559Z,11.00
2018-06-03T06:44:18.405Z,11.90
2018-06-03T06:46:48.764Z,11.77
2018-06-03T06:49:19.090Z,13.67
2018-06-03T06:51:49.425Z,12.23
2018-06-03T06:54:19.519Z,12.03
2018-06-03T06:56:50.052Z,13.10
2018-06-03T06:59:20.472Z,12.13
2018-06-03T07:01:50.959Z,12.73
2018-06-03T07:04:21.568Z,12.93
2018-06-03T07:06:52.714Z,13.47
2018-06-03T07:09:22.949Z,14.47
2018-06-03T07:11:54.090Z,14.20
2018-06-03T07:14:24.257Z,12.27
2018-06-03T07:16:54.504Z,13.30
2018-06-03T07:19:25.114Z,13.10
2018-06-03T07:21:56.241Z,13.80
2018-06-03T07:24:27.373Z,13.47
2018-06-03T07:26:57.844Z,12.70
2018-06-03T07:29:28.089Z,14.57
2018-06-03T07:31:58.225Z,14.23
2018-06-03T07:34:28.450Z,15.00
2018-06-03T07:36:58.507Z,12.07
2018-06-03T07:39:29.659Z,13.60
2018-06-03T07:42:00.725Z,15.37
2018-06-03T07:44:30.888Z,14.93
2018-06-03T07:47:02.289Z,15.10
2018-06-03T07:49:32.527Z,16.13
2018-06-03T07:52:02.656Z,16.13
2018-06-03T07:54:32.810Z,18.17
2018-06-03T07:57:03.696Z,17.67
2018-06-03T07:59:33.981Z,15.83
2018-06-03T08:02:05.523Z,16.60
2018-06-03T08:04:35.835Z,14.90
2018-06-03T08:07:05.940Z,17.07
2018-06-03T08:09:36.504Z,20.77
2018-06-03T08:12:07.418Z,17.47
2018-06-03T08:14:38.004Z,14.37
2018-06-03T08:17:08.864Z,19.47
2018-06-03T08:19:39.285Z,17.17
2018-06-03T08:22:09.858Z,21.20
2018-06-03T08:24:40.869Z,22.07
2018-06-03T08:27:11.179Z,21.97
2018-06-03T08:29:42.234Z,19.67
2018-06-03T08:32:13.682Z,21.17
2018-06-03T08:34:43.827Z,19.70
2018-06-03T08:37:15.557Z,18.07
2018-06-03T08:39:46.868Z,20.73
2018-06-03T08:42:17.395Z,20.73
2018-06-03T08:44:48.606Z,22.63
2018-06-03T08:47:19.202Z,19.73
2018-06-03T08:49:50.152Z,20.67
2018-06-03T08:52:21.022Z,21.13
2018-06-03T08:54:52.840Z,21.57
2018-06-03T08:57:24.576Z,18.70
2018-06-03T08:59:56.162Z,18.53
2018-06-03T09:02:26.436Z,20.37
2018-06-03T09:04:57.800Z,19.13
2018-06-03T09:07:29.340Z,20.73
2018-06-03T09:10:01.043Z,19.90
2018-06-03T09:12:31.620Z,20.63
2018-06-03T09:15:03.166Z,19.07
2018-06-03T09:17:33.523Z,19.13
2018-06-03T09:20:04.588Z,16.27
2018-06-03T09:22:36.682Z,17.43
2018-06-03T09:25:09.079Z,16.73
2018-06-03T09:27:49.093Z,16.70
2018-06-03T09:30:21.601Z,21.00
2018-06-03T09:32:54.424Z,15.63
2018-06-03T09:35:26.384Z,14.77
2018-06-03T09:37:58.125Z,14.80
2018-06-03T09:40:30.536Z,15.53
2018-06-03T09:43:03.253Z,18.97
2018-06-03T09:45:40.873Z,14.77
2018-06-03T09:48:12.434Z,12.83
2018-06-03T09:50:52.093Z,14.47
2018-06-03T09:53:24.344Z,14.50
2018-06-03T09:55:58.970Z,12.43
2018-06-03T09:58:31.973Z,14.77
2018-06-03T10:01:04.882Z,17.13
2018-06-03T10:03:40.781Z,13.10
2018-06-03T10:06:11.711Z,18.17
2018-06-03T10:08:42.935Z,19.73
2018-06-03T10:11:16.583Z,13.87
2018-06-03T10:13:48.091Z,14.40
2018-06-03T10:16:19.511Z,13.20
2018-06-03T10:18:58.976Z,13.33
2018-06-03T10:21:34.082Z,13.17
2018-06-03T10:24:08.039Z,12.50
2018-06-03T10:26:38.988Z,11.90
2018-06-03T10:29:11.410Z,13.20
2018-06-03T10:31:44.324Z,15.00
2018-06-03T10:34:15.785Z,15.40
2018-06-03T10:36:47.710Z,12.77
2018-06-03T10:39:18.795Z,13.17
2018-06-03T10:41:51.973Z,14.90
2018-06-03T10:44:22.607Z,14.33
2018-06-03T10:46:53.245Z,11.77
2018-06-03T10:49:25.617Z,15.13
2018-06-03T10:51:58.063Z,13.03
2018-06-03T10:54:30.391Z,11.47
2018-06-03T10:57:01.219Z,12.90
2018-06-03T10:59:31.922Z,12.97
2018-06-03T11:02:04.855Z,12.70
2018-06-03T11:04:36.025Z,13.63
2018-06-03T11:07:07.542Z,12.27
2018-06-03T11:09:39.332Z,13.07
2018-06-03T11:12:10.382Z,12.83
2018-06-03T11:14:41.391Z,13.17
2018-06-03T11:17:14.775Z,13.00
2018-06-03T11:21:12.723Z,10.37
2018-06-03T11:23:43.334Z,11.87
2018-06-03T11:26:13.966Z,11.83
2018-06-03T11:28:44.583Z,11.30
2018-06-03T11:31:18.984Z,12.03
2018-06-03T11:33:51.601Z,10.77
2018-06-03T11:36:22.031Z,12.00
2018-06-03T11:39:14.160Z,10.43
2018-06-03T11:41:45.305Z,10.33
2018-06-03T11:44:16.507Z,9.63
2018-06-03T11:46:47.185Z,10.43
2018-06-03T11:49:19.831Z,9.97
2018-06-03T11:51:53.436Z,10.43
2018-06-03T11:54:24.465Z,11.80
2018-06-03T11:58:10.060Z,11.10
2018-06-03T12:00:41.598Z,8.87
2018-06-03T12:03:17.400Z,10.47
2018-06-03T12:05:50.128Z,9.60
2018-06-03T12:08:21.578Z,8.50
2018-06-03T12:10:53.493Z,11.77
2018-06-03T12:13:25.844Z,10.30
2018-06-03T12:15:58.664Z,9.93
2018-06-03T12:18:30.326Z,8.80
2018-06-03T12:21:03.659Z,9.50
2018-06-03T12:23:36.214Z,10.77
2018-06-03T12:26:10.481Z,10.23
2018-06-03T12:28:42.221Z,9.70
2018-06-03T12:31:15.452Z,10.27
2018-06-03T12:33:47.422Z,9.93
2018-06-03T12:36:19.987Z,11.13
2018-06-03T12:38:52.010Z,9.47
2018-06-03T12:41:22.763Z,9.03
2018-06-03T12:43:53.729Z,9.57
2018-06-03T12:46:24.222Z,10.70
2018-06-03T12:48:57.856Z,12.77
2018-06-03T12:51:28.641Z,12.77
2018-06-03T12:53:59.866Z,13.90
2018-06-03T12:56:31.186Z,11.77
2018-06-03T12:59:02.505Z,10.50
2018-06-03T13:01:34.929Z,10.40
2018-06-03T13:04:07.369Z,9.17
2018-06-03T13:06:42.914Z,8.27
2018-06-03T13:09:17.801Z,9.00
2018-06-03T13:11:50.617Z,9.47
2018-06-03T13:14:23.068Z,10.60
2018-06-03T13:16:54.280Z,9.40
2018-06-03T13:19:26.120Z,12.30
2018-06-03T13:21:58.392Z,9.23
2018-06-03T13:24:30.788Z,10.03
2018-06-03T13:27:01.980Z,10.80
2018-06-03T13:29:33.763Z,11.60
2018-06-03T13:32:05.988Z,16.97
2018-06-03T13:34:36.751Z,10.87
2018-06-03T13:37:09.982Z,11.23
2018-06-03T13:39:41.327Z,11.90
2018-06-03T13:42:16.432Z,11.77
2018-06-03T13:44:48.812Z,10.33
2018-06-03T13:47:20.140Z,9.57
2018-06-03T13:49:51.639Z,9.40
2018-06-03T13:52:24.245Z,10.07
2018-06-03T13:54:55.978Z,10.00
2018-06-03T13:57:29.074Z,8.70
2018-06-03T14:00:02.421Z,10.93
2018-06-03T14:02:34.387Z,9.73
2018-06-03T14:05:06.227Z,10.37
2018-06-03T14:07:40.291Z,8.63
2018-06-03T14:10:11.251Z,10.60
2018-06-03T14:12:42.640Z,10.30
2018-06-03T14:15:14.675Z,9.30
2018-06-03T14:17:46.404Z,8.50
2018-06-03T14:20:19.033Z,8.70
2018-06-03T14:22:53.755Z,9.50
2018-06-03T14:25:26.411Z,11.17
2018-06-03T14:28:00.010Z,10.23
2018-06-03T14:30:32.449Z,10.20
2018-06-03T14:33:04.697Z,9.13
2018-06-03T14:35:41.937Z,9.03
2018-06-03T14:38:16.811Z,10.90
2018-06-03T14:40:51.416Z,10.97
2018-06-03T14:43:27.375Z,10.23
2018-06-03T14:46:06.485Z,9.43
2018-06-03T14:48:39.827Z,9.40
2018-06-03T14:51:13.646Z,8.20
2018-06-03T14:53:51.152Z,14.30
2018-06-03T14:56:25.213Z,11.10
2018-06-03T14:59:05.824Z,11.93
2018-06-03T15:01:38.297Z,11.50
2018-06-03T15:04:15.856Z,11.60
2018-06-03T15:06:52.509Z,14.97
2018-06-03T15:09:26.165Z,12.97
2018-06-03T15:11:57.325Z,13.07
2018-06-03T15:14:29.988Z,14.13
2018-06-03T15:17:05.366Z,14.33
2018-06-03T15:19:38.879Z,14.67
2018-06-03T15:22:10.917Z,15.13
2018-06-03T15:24:42.896Z,16.57
2018-06-03T15:27:15.573Z,15.33
2018-06-03T15:29:50.219Z,16.03
2018-06-03T15:32:22.027Z,16.50
2018-06-03T15:34:54.103Z,18.87
2018-06-03T15:37:25.048Z,16.33
2018-06-03T15:39:57.039Z,19.43
2018-06-03T15:42:29.464Z,18.77
2018-06-03T15:45:00.527Z,16.63
2018-06-03T15:47:33.539Z,17.20
2018-06-03T15:50:06.439Z,17.60
2018-06-03T15:52:40.506Z,18.23
2018-06-03T15:55:14.594Z,21.47
2018-06-03T15:57:47.099Z,16.67
2018-06-03T16:00:19.978Z,17.47
2018-06-03T16:02:52.683Z,17.73
2018-06-03T16:05:25.428Z,20.00
2018-06-03T16:07:57.065Z,19.87
2018-06-03T16:10:28.963Z,18.97
2018-06-03T16:13:01.503Z,19.57
2018-06-03T16:15:38.823Z,17.80
2018-06-03T16:18:13.853Z,17.03
2018-06-03T16:20:58.828Z,16.03
2018-06-03T16:23:36.172Z,16.43
2018-06-03T16:26:12.083Z,16.47
2018-06-03T16:28:45.184Z,18.60
2018-06-03T16:31:19.552Z,19.53
2018-06-03T16:33:55.452Z,19.23
2018-06-03T16:36:26.677Z,19.13
2018-06-03T16:39:03.416Z,20.80
2018-06-03T16:41:46.940Z,19.90
2018-06-03T16:44:19.235Z,18.83
2018-06-03T16:46:51.215Z,21.20
2018-06-03T16:49:25.504Z,28.43
2018-06-03T16:52:04.140Z,21.33
2018-06-03T16:54:34.860Z,24.03
2018-06-03T16:57:13.065Z,21.63
2018-06-03T16:59:46.649Z,19.67
2018-06-03T17:02:20.289Z,24.13
2018-06-03T17:04:51.962Z,20.43
2018-06-03T17:07:29.050Z,22.03
2018-06-03T17:10:01.793Z,22.53
2018-06-03T17:12:32.483Z,20.63
2018-06-03T17:15:04.233Z,20.20
2018-06-03T17:17:37.020Z,19.73
2018-06-03T17:20:08.237Z,22.47
2018-06-03T17:22:39.438Z,21.80
2018-06-03T17:25:12.453Z,23.27
2018-06-03T17:27:44.172Z,23.40
2018-06-03T17:30:16.038Z,25.83
2018-06-03T17:32:48.596Z,23.23
2018-06-03T17:35:20.946Z,23.50
2018-06-03T17:37:52.624Z,24.17
2018-06-03T17:40:23.781Z,24.03
2018-06-03T17:42:54.079Z,24.50
2018-06-03T17:46:44.276Z,23.50
2018-06-03T17:49:18.527Z,23.63
2018-06-03T17:51:50.181Z,22.97
2018-06-03T17:54:21.387Z,25.13
2018-06-03T17:57:02.079Z,20.83
2018-06-03T17:59:35.925Z,24.27
2018-06-03T18:02:08.936Z,23.47
2018-06-03T18:04:43.409Z,25.47
2018-06-03T18:07:15.582Z,24.23
2018-06-03T18:09:46.751Z,24.27
2018-06-03T18:12:19.259Z,24.57
2018-06-03T18:14:50.260Z,22.70
2018-06-03T18:17:22.252Z,22.87
2018-06-03T18:19:53.004Z,26.13
2018-06-03T18:22:32.359Z,24.63
2018-06-03T18:25:06.453Z,21.43
2018-06-03T18:27:37.148Z,23.50
2018-06-03T18:30:07.989Z,22.17
2018-06-03T18:32:41.522Z,25.47
2018-06-03T18:35:12.005Z,25.00
2018-06-03T18:37:42.597Z,26.67
2018-06-03T18:40:15.841Z,22.80
2018-06-03T18:42:46.986Z,24.37
2018-06-03T18:45:19.484Z,22.47
2018-06-03T18:47:51.121Z,24.00
2018-06-03T18:50:21.724Z,24.50
2018-06-03T18:52:52.998Z,24.17
2018-06-03T18:55:27.079Z,25.40
2018-06-03T18:58:00.593Z,28.47
2018-06-03T19:00:34.089Z,27.17
2018-06-03T19:03:09.721Z,26.27
2018-06-03T19:05:42.877Z,26.30
2018-06-03T19:08:18.034Z,27.53
2018-06-03T19:10:49.644Z,28.87
2018-06-03T19:13:22.018Z,27.37
2018-06-03T19:15:57.344Z,30.27
2018-06-03T19:18:34.608Z,31.43
2018-06-03T19:21:07.015Z,30.47
2018-06-03T19:23:37.780Z,28.07
2018-06-03T19:26:10.988Z,26.23
2018-06-03T19:28:42.973Z,29.67
2018-06-03T19:31:13.924Z,26.80
2018-06-03T19:33:44.470Z,26.63
2018-06-03T19:36:15.202Z,28.40
2018-06-03T19:38:45.906Z,25.77
2018-06-03T19:41:16.245Z,30.13
2018-06-03T19:43:46.747Z,27.67
2018-06-03T19:46:17.989Z,24.20
2018-06-03T19:48:49.348Z,26.17
2018-06-03T19:51:21.959Z,27.10
2018-06-03T19:53:52.894Z,25.93
2018-06-03T19:56:24.421Z,26.77
2018-06-03T19:58:56.636Z,26.63
2018-06-03T20:01:28.429Z,27.20
2018-06-03T20:03:59.297Z,31.13
2018-06-03T20:06:32.286Z,29.73
2018-06-03T20:11:54.570Z,26.03
2018-06-03T20:14:25.956Z,31.57
2018-06-03T20:16:56.911Z,28.40
2018-06-03T20:19:27.963Z,27.13
2018-06-03T20:22:00.214Z,29.27
2018-06-03T20:24:31.646Z,26.50
2018-06-03T20:27:03.139Z,27.87
2018-06-03T20:29:39.689Z,25.60
2018-06-03T20:32:13.211Z,26.27
2018-06-03T20:34:47.110Z,26.87
2018-06-03T20:37:18.066Z,23.37
2018-06-03T20:39:48.964Z,27.73
2018-06-03T20:42:20.309Z,27.67
2018-06-03T20:44:51.018Z,25.77
2018-06-03T20:47:23.311Z,29.40
2018-06-03T20:49:53.504Z,28.83
2018-06-03T20:52:24.778Z,26.87
2018-06-03T20:54:56.064Z,28.23
2018-06-03T20:57:27.311Z,26.77
2018-06-03T20:59:58.266Z,27.40
2018-06-03T21:02:28.791Z,30.50
2018-06-03T21:05:01.815Z,27.87
2018-06-03T21:07:35.671Z,28.10
2018-06-03T21:10:09.206Z,25.77
2018-06-03T21:12:40.665Z,26.80
2018-06-03T21:15:12.024Z,27.77
2018-06-03T21:17:42.871Z,25.33
2018-06-03T21:20:13.553Z,25.87
2018-06-03T21:22:44.145Z,26.70
2018-06-03T21:25:16.303Z,30.00
2018-06-03T21:27:48.220Z,28.50
2018-06-03T21:30:21.662Z,29.53
2018-06-03T21:32:52.384Z,27.80
2018-06-03T21:35:23.467Z,25.87
2018-06-03T21:37:55.965Z,28.87
2018-06-03T21:40:29.238Z,27.13
2018-06-03T21:43:08.284Z,27.17
2018-06-03T21:45:42.660Z,26.47
2018-06-03T21:48:16.617Z,26.53
2018-06-03T21:50:48.243Z,30.00
2018-06-03T21:53:20.175Z,28.63
2018-06-03T21:55:51.069Z,29.77
2018-06-03T21:58:25.596Z,25.00
2018-06-03T22:01:00.415Z,27.10
2018-06-03T22:03:32.358Z,27.60
2018-06-03T22:06:05.227Z,28.33
2018-06-03T22:08:36.096Z,25.70
2018-06-03T22:11:08.554Z,25.40
2018-06-03T22:13:39.083Z,26.03
2018-06-03T22:16:10.454Z,28.77
2018-06-03T22:18:43.167Z,28.00
2018-06-03T22:21:14.153Z,26.30
2018-06-03T22:23:46.106Z,27.17
2018-06-03T22:26:17.111Z,28.20
2018-06-03T22:28:48.622Z,26.33
2018-06-03T22:31:18.968Z,30.97
2018-06-03T22:33:50.447Z,27.00
2018-06-03T22:36:20.897Z,26.87
2018-06-03T22:38:52.477Z,27.93
2018-06-03T22:41:26.273Z,25.83
2018-06-03T22:43:58.154Z,25.80
2018-06-03T22:46:29.985Z,26.93
2018-06-03T22:49:01.544Z,27.57
2018-06-03T22:51:35.085Z,28.23
2018-06-03T22:54:05.910Z,28.27
2018-06-03T22:56:47.926Z,29.10
2018-06-03T22:59:18.663Z,30.30
2018-06-03T23:01:52.117Z,28.23
2018-06-03T23:04:22.712Z,29.33
2018-06-03T23:06:56.131Z,28.70
2018-06-03T23:09:27.021Z,28.70
2018-06-03T23:11:57.976Z,28.40
2018-06-03T23:14:29.352Z,28.07
2018-06-03T23:17:01.077Z,29.10
2018-06-03T23:19:31.527Z,29.67
2018-06-03T23:22:05.359Z,28.00
2018-06-03T23:24:37.586Z,27.63
2018-06-03T23:27:09.472Z,30.27
2018-06-03T23:29:41.236Z,27.37
2018-06-03T23:32:14.003Z,27.00
2018-06-03T23:34:45.594Z,26.53
2018-06-03T23:37:16.125Z,27.97
2018-06-03T23:39:47.553Z,24.63
2018-06-03T23:42:21.976Z,28.50
2018-06-03T23:44:52.171Z,26.77
2018-06-03T23:47:22.751Z,29.90
2018-06-03T23:49:52.927Z,31.10
2018-06-03T23:52:22.977Z,26.83
2018-06-03T23:54:53.009Z,29.13
2018-06-03T23:57:23.281Z,26.67
2018-06-03T23:59:53.441Z,29.30
